Time;durP1;ratioP1;P1;durP2;ratioP2;P2;SDS_P1;SDS_P2;PMS_P1;PMS_P2;Temp;Humidity;BMP_temperature;BMP_pressure;BME280_temperature;BME280_humidity;BME280_pressure;Samples;Min_cycle;Max_cycle;Signal;HPM_P1;HPM_P2
2021/06/20 00:01:10;;;;;;;9.95;2.20;;;;;;;20.19;85.20;99534.28;1677053;84;21946;-72
2021/06/20 00:03:37;;;;;;;8.70;2.10;;;;;;;20.17;85.38;99535.25;1667936;84;20977;-72
2021/06/20 00:06:13;;;;;;;7.40;1.90;;;;;;;20.15;85.40;99541.80;1682084;83;21080;-71
2021/06/20 00:08:39;;;;;;;9.78;2.45;;;;;;;20.13;85.60;99542.77;1633264;87;21629;-71
2021/06/20 00:11:06;;;;;;;7.67;2.33;;;;;;;20.13;85.79;99542.77;1633512;86;20922;-72
2021/06/20 00:13:34;;;;;;;6.15;2.25;;;;;;;20.11;85.90;99535.37;1623500;86;21072;-71
2021/06/20 00:16:02;;;;;;;10.93;2.40;;;;;;;20.09;86.08;99536.34;1649733;85;20874;-71
2021/06/20 00:18:29;;;;;;;6.28;2.10;;;;;;;20.07;86.21;99528.95;1628889;86;20950;-70
2021/06/20 00:20:55;;;;;;;5.12;1.87;;;;;;;20.04;86.46;99533.30;1619922;86;21517;-70
2021/06/20 00:23:21;;;;;;;7.45;2.80;;;;;;;20.04;86.65;99542.25;1628352;86;21473;-71
2021/06/20 00:25:48;;;;;;;12.58;2.92;;;;;;;20.01;86.67;99544.41;1635086;86;21109;-71
2021/06/20 00:28:15;;;;;;;12.18;2.42;;;;;;;19.97;87.00;99547.14;1621719;86;20930;-71
2021/06/20 00:30:41;;;;;;;10.43;2.77;;;;;;;19.95;87.18;99549.50;1625257;86;20973;-71
2021/06/20 00:33:07;;;;;;;16.27;2.35;;;;;;;19.93;87.23;99545.48;1609291;87;21526;-71
2021/06/20 00:35:34;;;;;;;9.73;2.83;;;;;;;19.92;87.35;99548.06;1605818;87;21060;-72
2021/06/20 00:38:00;;;;;;;4.67;2.15;;;;;;;19.90;87.36;99547.64;1617261;87;21122;-71
2021/06/20 00:40:27;;;;;;;3.85;2.52;;;;;;;19.88;87.35;99549.41;1608942;87;21491;-71
2021/06/20 00:42:53;;;;;;;8.83;1.70;;;;;;;19.87;87.45;99554.77;1607748;89;20983;-71
2021/06/20 00:45:21;;;;;;;5.67;2.58;;;;;;;19.86;87.50;99548.19;1607883;87;20924;-72
2021/06/20 00:47:48;;;;;;;13.62;2.40;;;;;;;19.84;87.56;99547.75;1685779;84;21027;-72
2021/06/20 00:50:14;;;;;;;8.65;2.52;;;;;;;19.82;87.59;99553.70;1673318;84;21156;-70
2021/06/20 00:52:41;;;;;;;14.87;2.55;;;;;;;19.79;87.61;99556.66;1657597;86;20868;-70
2021/06/20 00:55:08;;;;;;;4.87;2.05;;;;;;;19.76;87.79;99556.02;1673711;84;20999;-70
2021/06/20 00:57:35;;;;;;;7.67;2.50;;;;;;;19.72;87.88;99557.95;1660142;84;21061;-71
2021/06/20 01:00:05;;;;;;;10.95;2.22;;;;;;;19.71;87.98;99560.52;1677134;84;20953;-70
2021/06/20 01:02:31;;;;;;;9.60;2.27;;;;;;;19.66;88.20;99559.45;1671163;84;21176;-71
2021/06/20 01:04:58;;;;;;;9.03;2.60;;;;;;;19.62;88.55;99553.05;1678263;84;21018;-70
2021/06/20 01:07:24;;;;;;;5.40;2.27;;;;;;;19.62;88.79;99555.84;1689374;84;21061;-71
2021/06/20 01:09:51;;;;;;;5.70;2.45;;;;;;;19.62;88.78;99557.83;1661308;84;21708;-71
2021/06/20 01:12:18;;;;;;;6.75;2.35;;;;;;;19.60;88.94;99558.79;1659670;84;20902;-71
2021/06/20 01:14:46;;;;;;;6.05;2.20;;;;;;;19.58;89.12;99551.40;1665734;84;21121;-71
2021/06/20 01:17:12;;;;;;;8.63;2.70;;;;;;;19.56;89.52;99548.99;1661363;84;20876;-70
2021/06/20 01:19:40;;;;;;;15.50;2.67;;;;;;;19.54;89.73;99555.52;1680694;84;21012;-71
2021/06/20 01:22:26;;;;;;;11.18;2.60;;;;;;;19.53;89.91;99548.94;1680459;84;21544;-71
2021/06/20 01:24:59;;;;;;;10.78;2.77;;;;;;;19.53;90.12;99548.94;1696570;83;21011;-70
2021/06/20 01:27:33;;;;;;;11.68;2.30;;;;;;;19.53;90.16;99543.37;1667920;84;21157;-70
2021/06/20 01:30:04;;;;;;;7.08;2.40;;;;;;;19.52;90.17;99543.95;1651149;84;21595;-71
2021/06/20 01:32:31;;;;;;;5.10;2.50;;;;;;;19.52;90.16;99543.16;1663197;84;21129;-71
2021/06/20 01:34:57;;;;;;;10.82;2.62;;;;;;;19.51;90.07;99536.78;1673646;84;20978;-71
2021/06/20 01:37:24;;;;;;;10.35;2.30;;;;;;;19.50;90.10;99535.73;1660811;84;21087;-71
2021/06/20 01:39:51;;;;;;;11.43;2.55;;;;;;;19.50;90.00;99535.15;1673589;84;21148;-71
2021/06/20 01:42:17;;;;;;;12.35;2.58;;;;;;;19.48;89.92;99537.50;1678331;84;21627;-71
2021/06/20 01:44:55;;;;;;;7.55;2.58;;;;;;;19.45;89.96;99534.88;1679711;84;20946;-71
2021/06/20 01:47:22;;;;;;;12.28;2.55;;;;;;;19.42;90.02;99541.20;1684257;84;21061;-70
2021/06/20 01:49:49;;;;;;;8.25;2.62;;;;;;;19.38;90.00;99539.54;1690135;84;21396;-70
2021/06/20 01:52:19;;;;;;;15.10;2.98;;;;;;;19.35;90.12;99543.07;1683001;84;21141;-70
2021/06/20 01:54:51;;;;;;;8.20;2.40;;;;;;;19.30;90.00;99541.41;1672292;84;21488;-71
2021/06/20 01:57:24;;;;;;;8.15;2.42;;;;;;;19.24;90.27;99542.91;1671143;84;20980;-71
2021/06/20 01:59:51;;;;;;;7.90;3.10;;;;;;;19.22;90.45;99547.23;1652632;84;21031;-71
2021/06/20 02:02:18;;;;;;;9.05;2.65;;;;;;;19.17;90.58;99541.98;1671959;84;21103;-70
2021/06/20 02:04:45;;;;;;;12.75;3.12;;;;;;;19.14;90.83;99538.77;1679961;84;21098;-71
2021/06/20 02:07:13;;;;;;;8.30;2.85;;;;;;;19.14;91.11;99531.02;1660889;85;20861;-71
2021/06/20 02:09:40;;;;;;;12.68;3.02;;;;;;;19.13;91.18;99528.82;1661054;84;21019;-71
2021/06/20 02:12:08;;;;;;;9.78;2.85;;;;;;;19.15;91.26;99527.05;1685482;84;21021;-70
2021/06/20 02:14:36;;;;;;;12.70;3.00;;;;;;;19.17;91.23;99520.53;1681183;84;21019;-70
2021/06/20 02:17:27;;;;;;;9.50;2.60;;;;;;;19.21;91.25;99524.76;1669844;84;21093;-71
2021/06/20 02:19:58;;;;;;;8.48;2.80;;;;;;;19.25;91.24;99520.05;1674348;84;21635;-71
2021/06/20 02:22:25;;;;;;;10.05;2.85;;;;;;;19.29;91.10;99515.34;1660250;84;21641;-71
2021/06/20 02:24:52;;;;;;;6.83;3.12;;;;;;;19.34;90.86;99528.94;1677085;84;21037;-70
2021/06/20 02:27:18;;;;;;;14.25;2.65;;;;;;;19.37;90.36;99550.45;1692473;84;21009;-70
2021/06/20 02:29:47;;;;;;;4.05;2.70;;;;;;;19.41;90.19;99556.30;1683529;84;21588;-71
2021/06/20 02:32:14;;;;;;;7.95;3.15;;;;;;;19.45;90.39;99554.95;1685808;84;21035;-71
2021/06/20 02:34:41;;;;;;;7.08;2.72;;;;;;;19.50;90.57;99542.70;1676060;84;20946;-71
2021/06/20 02:37:08;;;;;;;8.23;2.67;;;;;;;19.53;90.41;99551.72;1661964;84;20962;-71
2021/06/20 02:39:35;;;;;;;4.85;2.45;;;;;;;19.56;90.11;99545.41;1672974;84;21152;-71
2021/06/20 02:42:02;;;;;;;14.35;3.27;;;;;;;19.57;90.16;99546.42;1683069;84;21154;-71
2021/06/20 02:44:29;;;;;;;6.55;2.98;;;;;;;19.60;90.35;99546.26;1658527;84;21442;-71
2021/06/20 02:46:58;;;;;;;8.75;2.70;;;;;;;19.62;90.41;99534.95;1683004;84;20969;-71
2021/06/20 02:49:24;;;;;;;10.32;2.90;;;;;;;19.65;90.50;99525.02;1670888;84;21662;-71
2021/06/20 02:51:51;;;;;;;11.43;2.70;;;;;;;19.70;90.40;99526.08;1675438;84;20992;-70
2021/06/20 02:54:17;;;;;;;6.47;2.70;;;;;;;19.70;90.07;99521.91;1693920;84;21579;-70
2021/06/20 02:56:45;;;;;;;2.70;2.20;;;;;;;19.72;89.90;99527.90;1674343;84;21483;-70
2021/06/20 02:59:11;;;;;;;8.28;2.50;;;;;;;19.74;89.73;99524.15;1671378;84;21002;-71
2021/06/20 03:01:37;;;;;;;4.72;2.30;;;;;;;19.75;89.60;99529.34;1682282;84;20985;-71
2021/06/20 03:04:05;;;;;;;8.30;2.72;;;;;;;19.78;89.45;99524.41;1682695;84;21123;-71
2021/06/20 03:06:31;;;;;;;8.15;2.37;;;;;;;19.80;89.44;99535.17;1662194;84;21800;-71
2021/06/20 03:08:58;;;;;;;17.65;3.37;;;;;;;19.84;89.20;99538.01;1672672;83;20957;-71
2021/06/20 03:11:25;;;;;;;8.70;2.65;;;;;;;19.90;88.99;99539.28;1665563;84;21037;-71
2021/06/20 03:13:51;;;;;;;6.10;2.47;;;;;;;19.94;88.73;99535.95;1667392;84;20960;-71
2021/06/20 03:16:19;;;;;;;7.55;2.65;;;;;;;20.00;88.43;99535.83;1684947;84;21436;-71
2021/06/20 03:18:47;;;;;;;5.05;2.55;;;;;;;20.06;88.51;99541.28;1680840;84;21157;-71
2021/06/20 03:21:15;;;;;;;4.85;2.55;;;;;;;20.12;88.35;99531.41;1675844;84;20995;-71
2021/06/20 03:23:43;;;;;;;8.15;2.27;;;;;;;20.17;87.65;99527.48;1680762;84;20919;-71
2021/06/20 03:26:10;;;;;;;12.00;2.92;;;;;;;20.20;87.23;99530.31;1644899;86;20982;-71
2021/06/20 03:28:37;;;;;;;7.45;2.60;;;;;;;20.20;86.70;99534.48;1653550;84;21059;-71
2021/06/20 03:31:03;;;;;;;11.40;2.75;;;;;;;20.19;86.39;99539.05;1664127;84;21166;-71
2021/06/20 03:33:31;;;;;;;6.05;2.45;;;;;;;20.17;86.29;99540.82;1672299;84;21024;-71
2021/06/20 03:35:59;;;;;;;9.75;2.90;;;;;;;20.17;85.97;99539.43;1664882;84;20972;-71
2021/06/20 03:38:26;;;;;;;5.00;2.77;;;;;;;20.17;86.09;99536.64;1668048;84;20959;-71
2021/06/20 03:40:54;;;;;;;11.93;2.55;;;;;;;20.19;85.93;99536.27;1662445;84;20902;-71
2021/06/20 03:43:21;;;;;;;17.85;2.92;;;;;;;20.20;85.59;99537.28;1666466;84;21182;-71
2021/06/20 03:45:47;;;;;;;9.35;2.33;;;;;;;20.19;85.80;99548.22;1672198;84;21021;-71
2021/06/20 03:48:14;;;;;;;8.98;2.40;;;;;;;20.17;85.52;99535.25;1653413;84;21462;-71
2021/06/20 03:50:40;;;;;;;4.97;2.22;;;;;;;20.15;84.98;99538.20;1668425;84;21049;-71
2021/06/20 03:53:07;;;;;;;6.00;2.10;;;;;;;20.14;85.36;99533.81;1652208;84;21045;-71
2021/06/20 03:55:34;;;;;;;5.47;2.27;;;;;;;20.14;85.19;99536.01;1676496;84;21309;-71
2021/06/20 03:58:03;;;;;;;8.05;2.17;;;;;;;20.15;84.84;99522.88;1670366;84;21572;-71
2021/06/20 04:00:29;;;;;;;10.72;2.45;;;;;;;20.15;84.62;99518.11;1666276;84;20914;-71
2021/06/20 04:02:55;;;;;;;13.83;2.17;;;;;;;20.17;84.36;99510.16;1688068;84;20936;-71
2021/06/20 04:05:22;;;;;;;5.03;2.40;;;;;;;20.19;84.44;99507.80;1690434;84;21073;-71
2021/06/20 04:07:49;;;;;;;15.08;2.45;;;;;;;20.20;83.73;99510.80;1673313;84;21168;-71
2021/06/20 04:10:15;;;;;;;5.78;2.70;;;;;;;20.23;83.85;99506.41;1664244;84;21083;-71
2021/06/20 04:12:42;;;;;;;12.40;2.40;;;;;;;20.26;83.47;99503.67;1651744;84;21016;-71
2021/06/20 04:15:09;;;;;;;10.50;2.58;;;;;;;20.30;82.90;99491.97;1662502;84;20967;-71
2021/06/20 04:17:36;;;;;;;4.12;1.98;;;;;;;20.34;82.44;99492.80;1673506;84;21211;-71
2021/06/20 04:20:07;;;;;;;6.40;2.20;;;;;;;20.39;82.47;99488.91;1661801;84;21749;-71
2021/06/20 04:22:34;;;;;;;8.70;2.35;;;;;;;20.47;82.24;99486.99;1696166;84;20889;-71
2021/06/20 04:25:01;;;;;;;9.50;2.50;;;;;;;20.57;81.96;99491.88;1691199;84;20897;-72
2021/06/20 04:27:27;;;;;;;8.18;2.40;;;;;;;20.68;81.21;99487.20;1668468;84;21005;-72
2021/06/20 04:29:54;;;;;;;9.25;2.05;;;;;;;20.79;81.13;99490.88;1676904;84;21446;-72
2021/06/20 04:32:20;;;;;;;8.68;2.40;;;;;;;20.89;79.70;99485.95;1682098;84;21138;-72
2021/06/20 04:34:48;;;;;;;5.03;2.02;;;;;;;20.94;79.18;99478.62;1695775;84;21057;-71
2021/06/20 04:37:14;;;;;;;2.70;1.65;;;;;;;20.96;78.68;99474.85;1642879;85;21551;-71
2021/06/20 04:39:41;;;;;;;11.78;1.77;;;;;;;20.97;78.32;99477.85;1667251;84;20962;-71
2021/06/20 04:42:10;;;;;;;6.58;1.62;;;;;;;20.99;78.25;99479.66;1668457;84;21012;-70
2021/06/20 04:44:45;;;;;;;14.93;2.00;;;;;;;21.01;77.67;99472.30;1688607;84;21162;-72
2021/06/20 04:47:16;;;;;;;4.75;1.77;;;;;;;21.01;77.75;99471.70;1671746;84;21021;-72
2021/06/20 04:49:43;;;;;;;4.27;1.53;;;;;;;21.04;77.61;99474.31;1670969;84;21007;-71
2021/06/20 04:52:11;;;;;;;9.43;2.22;;;;;;;21.06;77.98;99490.08;1680512;84;21080;-72
2021/06/20 04:54:49;;;;;;;6.55;1.77;;;;;;;21.07;77.80;99495.86;1654141;84;20974;-71
2021/06/20 04:57:26;;;;;;;4.37;1.82;;;;;;;21.11;78.04;99493.91;1687954;84;21187;-72
2021/06/20 04:59:54;;;;;;;4.95;1.70;;;;;;;21.17;78.08;99493.75;1647287;84;21088;-72
2021/06/20 05:02:21;;;;;;;6.30;2.02;;;;;;;21.26;78.17;99490.05;1672080;84;21466;-71
2021/06/20 05:04:48;;;;;;;5.33;1.80;;;;;;;21.37;76.97;99487.33;1682422;84;20989;-71
2021/06/20 05:07:15;;;;;;;6.17;1.90;;;;;;;21.43;76.98;99488.54;1654567;84;21006;-71
2021/06/20 05:09:42;;;;;;;4.97;1.92;;;;;;;21.50;76.53;99474.62;1674074;84;21553;-71
2021/06/20 05:12:09;;;;;;;4.05;1.45;;;;;;;21.54;75.04;99482.42;1664740;84;21007;-71
2021/06/20 05:14:38;;;;;;;3.52;1.80;;;;;;;21.55;75.02;99473.45;1676477;84;21127;-72
2021/06/20 05:17:04;;;;;;;5.03;1.77;;;;;;;21.61;75.05;99467.09;1668541;84;21048;-72
2021/06/20 05:19:31;;;;;;;2.55;1.80;;;;;;;21.72;75.82;99465.16;1674945;84;21501;-71
2021/06/20 05:21:58;;;;;;;6.37;1.90;;;;;;;21.84;74.37;99460.41;1653865;84;21153;-73
2021/06/20 05:24:24;;;;;;;4.10;1.57;;;;;;;21.92;72.94;99462.84;1681257;84;21115;-72
2021/06/20 05:26:51;;;;;;;5.80;1.57;;;;;;;22.03;73.23;99462.88;1679169;84;20974;-71
2021/06/20 05:29:18;;;;;;;5.67;1.47;;;;;;;22.18;73.17;99467.32;1682564;84;21033;-71
2021/06/20 05:31:44;;;;;;;4.47;1.60;;;;;;;22.39;73.08;99472.96;1647974;85;20940;-71
2021/06/20 05:34:10;;;;;;;6.40;1.70;;;;;;;22.58;71.35;99483.55;1664848;84;21447;-71
2021/06/20 05:36:36;;;;;;;6.95;1.50;;;;;;;22.68;70.09;99484.97;1665248;84;20954;-71
2021/06/20 05:39:04;;;;;;;9.58;1.62;;;;;;;22.70;68.47;99487.36;1679774;84;20949;-71
2021/06/20 05:41:30;;;;;;;7.20;1.32;;;;;;;22.70;68.67;99488.77;1653009;84;20918;-71
2021/06/20 05:43:56;;;;;;;4.53;1.80;;;;;;;22.68;67.88;99494.75;1657424;84;21541;-71
2021/06/20 05:46:23;;;;;;;2.37;1.52;;;;;;;22.67;69.05;99497.95;1661827;84;21121;-71
2021/06/20 05:48:50;;;;;;;7.22;1.50;;;;;;;22.69;68.68;99492.76;1680424;84;20969;-71
2021/06/20 05:51:17;;;;;;;4.65;1.70;;;;;;;22.76;68.91;99481.58;1674150;84;21103;-71
2021/06/20 05:53:43;;;;;;;3.95;1.50;;;;;;;22.85;68.40;99482.01;1655877;84;21065;-70
2021/06/20 05:56:10;;;;;;;5.17;1.70;;;;;;;22.90;67.55;99480.80;1672088;84;20863;-71
2021/06/20 05:58:37;;;;;;;3.77;1.77;;;;;;;23.01;69.06;99477.41;1673213;84;21512;-71
2021/06/20 06:01:05;;;;;;;9.20;1.80;;;;;;;23.18;68.09;99471.56;1668198;84;20953;-71
2021/06/20 06:03:34;;;;;;;6.05;1.60;;;;;;;23.34;67.09;99467.73;1695499;84;20952;-72
2021/06/20 06:06:02;;;;;;;1.62;1.20;;;;;;;23.44;65.72;99474.52;1675037;84;21013;-71
2021/06/20 06:08:28;;;;;;;7.33;1.90;;;;;;;23.47;65.18;99472.31;1670218;84;21054;-72
2021/06/20 06:10:55;;;;;;;9.95;1.75;;;;;;;23.49;65.21;99468.50;1648690;84;21791;-71
2021/06/20 06:13:21;;;;;;;3.87;1.55;;;;;;;23.53;64.58;99463.69;1669699;84;21082;-71
2021/06/20 06:15:49;;;;;;;3.05;1.45;;;;;;;23.59;64.72;99463.50;1653442;84;21067;-71
2021/06/20 06:18:16;;;;;;;5.15;1.35;;;;;;;23.65;64.22;99456.27;1677017;84;21047;-71
2021/06/20 06:20:42;;;;;;;2.98;1.12;;;;;;;23.70;64.08;99462.83;1679125;83;21072;-71
2021/06/20 06:23:10;;;;;;;4.50;1.52;;;;;;;23.73;63.12;99467.63;1678761;84;21213;-71
2021/06/20 06:25:37;;;;;;;6.75;1.72;;;;;;;23.76;63.24;99464.62;1678747;84;21156;-71
2021/06/20 06:28:04;;;;;;;3.50;1.67;;;;;;;23.80;63.32;99468.20;1697652;84;21049;-73
2021/06/20 06:30:31;;;;;;;6.15;1.65;;;;;;;23.86;63.24;99472.19;1683223;84;21526;-73
2021/06/20 06:32:57;;;;;;;4.72;1.42;;;;;;;23.93;63.27;99470.75;1695183;84;21037;-72
2021/06/20 06:35:24;;;;;;;3.45;1.72;;;;;;;24.00;62.07;99470.72;1677175;84;22090;-72
2021/06/20 06:37:51;;;;;;;4.10;1.40;;;;;;;24.07;62.92;99481.11;1684430;84;21332;-72
2021/06/20 06:40:17;;;;;;;4.28;1.40;;;;;;;24.14;61.28;99472.66;1690089;84;21169;-73
2021/06/20 06:42:45;;;;;;;6.50;1.12;;;;;;;24.18;61.51;99474.84;1680035;84;21102;-72
2021/06/20 06:45:13;;;;;;;2.62;1.30;;;;;;;24.20;60.45;99476.02;1698115;84;20960;-72
2021/06/20 06:47:39;;;;;;;4.20;1.75;;;;;;;24.23;62.74;99468.20;1703920;83;21137;-73
2021/06/20 06:50:07;;;;;;;6.53;1.92;;;;;;;24.33;61.75;99475.75;1680032;84;21013;-70
2021/06/20 06:52:35;;;;;;;3.62;1.42;;;;;;;24.42;60.99;99471.70;1670840;84;20968;-74
2021/06/20 06:55:01;;;;;;;5.87;1.30;;;;;;;24.45;60.35;99461.85;1685477;84;21095;-71
2021/06/20 06:57:28;;;;;;;8.95;1.65;;;;;;;24.50;59.82;99460.02;1684774;84;21015;-71
2021/06/20 06:59:55;;;;;;;7.42;1.30;;;;;;;24.55;61.59;99454.57;1679132;84;21182;-75
2021/06/20 07:02:25;;;;;;;5.60;1.37;;;;;;;24.67;61.99;99458.29;1696340;84;21173;-71
2021/06/20 07:04:51;;;;;;;4.65;1.30;;;;;;;24.78;60.64;99454.00;1658040;83;21161;-71
2021/06/20 07:07:18;;;;;;;5.97;1.57;;;;;;;24.83;58.90;99447.94;1679854;84;20947;-71
2021/06/20 07:09:45;;;;;;;2.22;1.20;;;;;;;24.86;57.86;99446.47;1648608;84;21065;-71
2021/06/20 07:12:12;;;;;;;3.58;1.40;;;;;;;24.88;57.78;99441.84;1686042;84;21868;-71
2021/06/20 07:14:38;;;;;;;2.87;1.42;;;;;;;24.98;59.06;99452.22;1679338;84;21011;-71
2021/06/20 07:17:05;;;;;;;5.95;1.20;;;;;;;25.05;57.20;99439.52;1690657;84;21466;-72
2021/06/20 07:19:34;;;;;;;4.75;1.45;;;;;;;25.09;56.17;99437.47;1669682;84;21098;-71
2021/06/20 07:22:03;;;;;;;2.33;1.07;;;;;;;25.11;55.95;99430.83;1639604;86;21533;-71
2021/06/20 07:24:29;;;;;;;5.40;1.20;;;;;;;25.14;53.64;99424.98;1643396;87;21329;-71
2021/06/20 07:26:56;;;;;;;4.80;1.40;;;;;;;25.18;52.67;99422.33;1629235;87;21042;-70
2021/06/20 07:29:22;;;;;;;6.53;1.82;;;;;;;25.20;53.79;99427.53;1625083;85;20958;-72
2021/06/20 07:31:48;;;;;;;3.00;1.52;;;;;;;25.28;54.74;99427.05;1623959;87;21032;-71
2021/06/20 07:34:15;;;;;;;5.92;1.32;;;;;;;25.39;53.27;99432.55;1645864;86;21090;-71
2021/06/20 07:36:41;;;;;;;4.28;1.17;;;;;;;25.46;54.93;99422.60;1631421;87;21721;-71
2021/06/20 07:39:07;;;;;;;6.95;1.30;;;;;;;25.58;53.36;99426.28;1609074;87;21550;-72
2021/06/20 07:41:35;;;;;;;2.33;1.15;;;;;;;25.69;53.46;99422.57;1643069;87;21038;-72
2021/06/20 07:44:02;;;;;;;8.40;1.50;;;;;;;25.74;54.04;99417.89;1607227;87;21082;-72
2021/06/20 07:46:30;;;;;;;2.15;1.30;;;;;;;25.84;54.38;99415.55;1621115;86;21594;-72
2021/06/20 07:48:56;;;;;;;6.00;1.52;;;;;;;25.96;53.83;99427.03;1627209;87;21748;-70
2021/06/20 07:51:22;;;;;;;9.88;1.98;;;;;;;26.08;54.47;99415.79;1645679;87;20934;-70
2021/06/20 07:53:49;;;;;;;8.38;1.07;;;;;;;26.22;54.96;99411.37;1585191;87;21082;-70
2021/06/20 07:56:15;;;;;;;5.08;1.10;;;;;;;26.32;51.28;99418.09;1637420;87;21098;-71
2021/06/20 07:58:41;;;;;;;7.65;1.20;;;;;;;26.34;50.21;99412.83;1623491;87;21546;-71
2021/06/20 08:01:08;;;;;;;8.10;1.60;;;;;;;26.34;51.62;99414.84;1621859;87;21495;-71
2021/06/20 08:03:35;;;;;;;5.87;1.52;;;;;;;26.35;51.81;99405.98;1613094;87;21054;-71
2021/06/20 08:06:02;;;;;;;4.05;1.20;;;;;;;26.41;51.81;99407.09;1632853;87;21166;-70
2021/06/20 08:08:29;;;;;;;3.80;1.25;;;;;;;26.49;51.44;99397.92;1580107;90;21153;-71
2021/06/20 08:10:57;;;;;;;4.35;1.12;;;;;;;26.56;53.32;99399.22;1625980;87;21140;-71
2021/06/20 08:13:25;;;;;;;4.53;1.02;;;;;;;26.67;52.39;99394.17;1591739;87;20978;-70
2021/06/20 08:15:53;;;;;;;4.97;1.15;;;;;;;26.75;50.23;99378.75;1581742;90;21668;-71
2021/06/20 08:18:20;;;;;;;3.00;1.30;;;;;;;26.81;50.60;99372.02;1581192;88;21004;-71
2021/06/20 08:20:46;;;;;;;4.35;1.32;;;;;;;26.91;50.11;99382.30;1579435;90;21069;-70
2021/06/20 08:23:13;;;;;;;5.58;1.40;;;;;;;27.01;49.08;99373.50;1584239;89;21106;-71
2021/06/20 08:25:40;;;;;;;8.60;1.75;;;;;;;27.19;47.70;99372.52;1584430;89;21058;-71
2021/06/20 08:28:07;;;;;;;3.22;1.62;;;;;;;27.37;48.71;99377.19;1584429;89;21105;-71
2021/06/20 08:30:34;;;;;;;7.33;2.02;;;;;;;27.52;47.43;99370.65;1583738;90;21494;-71
2021/06/20 08:33:00;;;;;;;4.70;1.90;;;;;;;27.63;46.80;99376.09;1584087;90;21089;-71
2021/06/20 08:35:27;;;;;;;8.40;1.30;;;;;;;27.78;46.58;99374.53;1582986;90;20990;-70
2021/06/20 08:37:54;;;;;;;4.67;1.70;;;;;;;27.90;46.32;99374.66;1580995;90;21169;-70
2021/06/20 08:40:20;;;;;;;2.52;1.12;;;;;;;27.98;46.29;99372.47;1632268;87;21082;-70
2021/06/20 08:42:47;;;;;;;5.20;1.82;;;;;;;28.10;46.46;99374.61;1628340;87;21510;-70
2021/06/20 08:45:14;;;;;;;5.60;1.60;;;;;;;28.26;46.22;99376.69;1643647;87;20974;-70
2021/06/20 08:47:41;;;;;;;6.80;3.08;;;;;;;28.40;46.28;99364.23;1628811;86;21577;-71
2021/06/20 08:50:10;;;;;;;1.57;1.00;;;;;;;28.51;45.58;99371.82;1615962;87;21564;-71
2021/06/20 08:52:37;;;;;;;7.53;1.60;;;;;;;28.62;44.97;99378.00;1633204;86;21043;-71
2021/06/20 08:55:06;;;;;;;4.15;1.32;;;;;;;28.71;45.17;99380.99;1620017;87;21475;-72
2021/06/20 08:57:38;;;;;;;1.25;0.93;;;;;;;28.86;45.66;99385.07;1619830;87;20987;-72
2021/06/20 09:00:12;;;;;;;5.80;1.35;;;;;;;29.07;43.49;99385.09;1614735;87;21085;-71
2021/06/20 09:02:39;;;;;;;5.25;1.20;;;;;;;29.14;43.36;99379.87;1607786;87;21579;-72
2021/06/20 09:05:08;;;;;;;5.00;1.20;;;;;;;29.18;41.73;99376.33;1644277;87;21009;-71
2021/06/20 09:07:37;;;;;;;3.27;1.00;;;;;;;29.18;43.48;99375.70;1615512;87;21073;-73
2021/06/20 09:10:19;;;;;;;4.58;1.50;;;;;;;29.20;43.36;99367.57;1633819;87;20994;-72
2021/06/20 09:12:55;;;;;;;4.10;1.57;;;;;;;29.29;42.84;99375.41;1581342;90;21122;-72
2021/06/20 09:15:25;;;;;;;3.47;1.05;;;;;;;29.42;44.25;99374.86;1578710;90;21225;-73
2021/06/20 09:17:55;;;;;;;12.13;1.35;;;;;;;29.55;44.04;99384.77;1560956;90;21054;-72
2021/06/20 09:20:40;;;;;;;10.95;1.75;;;;;;;29.61;41.99;99390.67;1625802;86;21124;-72
2021/06/20 09:23:14;;;;;;;3.12;1.82;;;;;;;29.47;41.67;99385.59;1689786;84;21503;-69
2021/06/20 09:25:43;;;;;;;5.62;1.37;;;;;;;29.52;43.15;99390.70;1659654;84;21028;-71
2021/06/20 09:28:11;;;;;;;1.55;1.00;;;;;;;29.65;42.53;99382.88;1668746;84;21784;-70
2021/06/20 09:30:47;;;;;;;4.22;1.40;;;;;;;29.67;41.55;99381.80;1673672;84;20941;-71
2021/06/20 09:33:13;;;;;;;6.15;2.10;;;;;;;29.66;42.16;99388.70;1682317;84;21059;-71
2021/06/20 09:35:55;;;;;;;3.85;1.52;;;;;;;29.71;43.27;99381.08;1651160;84;21619;-72
2021/06/20 09:38:31;;;;;;;4.62;1.80;;;;;;;29.85;42.07;99384.27;1649287;85;21613;-71
2021/06/20 09:41:13;;;;;;;5.53;1.42;;;;;;;30.00;43.98;99371.92;1641126;84;21912;-72
2021/06/20 09:43:53;;;;;;;8.23;1.47;;;;;;;30.26;41.46;99368.45;1662421;84;21004;-72
2021/06/20 09:46:19;;;;;;;4.05;1.65;;;;;;;30.35;41.49;99361.48;1662429;84;21098;-72
2021/06/20 09:48:47;;;;;;;10.93;2.10;;;;;;;30.47;41.25;99368.37;1684137;84;21021;-71
2021/06/20 09:51:20;;;;;;;10.10;2.22;;;;;;;30.54;40.59;99359.64;1666711;84;21045;-71
2021/06/20 09:53:49;;;;;;;9.95;1.50;;;;;;;30.50;40.90;99363.22;1655135;86;22186;-72
2021/06/20 09:56:25;;;;;;;8.10;1.40;;;;;;;30.48;41.13;99361.47;1660702;85;21523;-71
2021/06/20 09:58:58;;;;;;;6.72;1.40;;;;;;;30.46;39.83;99351.22;1676145;84;21167;-71
2021/06/20 10:01:27;;;;;;;6.92;1.50;;;;;;;30.49;40.69;99344.64;1687910;84;21044;-71
2021/06/20 10:03:54;;;;;;;7.33;1.45;;;;;;;30.55;40.74;99345.02;1662814;84;21576;-70
2021/06/20 10:06:21;;;;;;;9.80;1.80;;;;;;;30.54;38.84;99355.39;1668487;84;22148;-70
2021/06/20 10:08:47;;;;;;;6.87;1.55;;;;;;;30.52;39.79;99343.11;1690349;84;21053;-71
2021/06/20 10:11:14;;;;;;;14.47;1.47;;;;;;;30.59;39.63;99341.31;1666774;84;21017;-71
2021/06/20 10:13:42;;;;;;;14.50;2.05;;;;;;;30.78;40.01;99339.59;1654836;84;20977;-72
2021/06/20 10:16:25;;;;;;;13.35;2.15;;;;;;;30.92;40.10;99347.42;1675046;84;21610;-71
2021/06/20 10:19:16;;;;;;;9.30;2.00;;;;;;;31.10;41.37;99360.34;1614789;86;21615;-70
2021/06/20 10:21:46;;;;;;;11.08;1.70;;;;;;;31.20;37.25;99342.15;1634974;85;21516;-73
2021/06/20 10:24:19;;;;;;;13.03;1.72;;;;;;;30.95;38.62;99345.88;1631694;86;21064;-71
2021/06/20 10:27:03;;;;;;;9.35;1.52;;;;;;;30.98;39.12;99344.96;1639126;86;21053;-71
2021/06/20 10:29:34;;;;;;;10.13;1.60;;;;;;;31.00;38.75;99336.00;1631580;86;21052;-71
2021/06/20 10:32:17;;;;;;;12.15;1.70;;;;;;;31.01;39.50;99343.25;1666960;84;21150;-70
2021/06/20 10:34:58;;;;;;;12.53;1.70;;;;;;;31.01;37.32;99339.80;1675884;84;21076;-71
2021/06/20 10:37:28;;;;;;;16.40;1.95;;;;;;;30.93;39.09;99344.13;1678831;84;21015;-71
2021/06/20 10:39:56;;;;;;;8.30;1.67;;;;;;;30.85;39.23;99339.34;1664205;84;20987;-71
2021/06/20 10:42:38;;;;;;;14.40;2.22;;;;;;;30.92;38.99;99325.55;1674521;84;21007;-70
2021/06/20 10:45:09;;;;;;;15.90;1.70;;;;;;;30.95;38.18;99330.92;1673546;84;21611;-70
2021/06/20 10:47:41;;;;;;;12.63;2.02;;;;;;;30.93;38.52;99323.50;1675965;84;20961;-71
2021/06/20 10:50:13;;;;;;;8.58;1.25;;;;;;;30.98;39.88;99327.95;1671525;84;21010;-71
2021/06/20 10:52:43;;;;;;;5.50;1.32;;;;;;;31.13;38.05;99319.13;1685513;84;20916;-71
2021/06/20 10:55:17;;;;;;;8.13;1.85;;;;;;;31.18;38.91;99317.13;1674968;84;21006;-72
2021/06/20 10:57:55;;;;;;;7.80;1.15;;;;;;;31.38;38.85;99313.92;1669404;84;21516;-71
2021/06/20 11:00:30;;;;;;;15.32;1.98;;;;;;;31.42;36.59;99313.16;1664980;85;20942;-70
2021/06/20 11:03:09;;;;;;;7.83;1.70;;;;;;;31.35;37.83;99302.09;1630690;86;21515;-77
2021/06/20 11:05:52;;;;;;;10.60;1.98;;;;;;;31.41;37.94;99293.77;1640244;84;21080;-73
2021/06/20 11:08:29;;;;;;;9.28;1.50;;;;;;;31.43;35.76;99283.55;1688886;84;21072;-72
2021/06/20 11:11:17;;;;;;;8.58;1.50;;;;;;;31.39;37.73;99285.73;1661846;84;21146;-72
2021/06/20 11:13:48;;;;;;;9.98;1.60;;;;;;;31.36;38.86;99272.48;1671935;84;21741;-73
2021/06/20 11:16:41;;;;;;;10.20;1.77;;;;;;;31.40;37.76;99281.64;1673117;84;21584;-71
2021/06/20 11:19:18;;;;;;;9.63;1.98;;;;;;;31.44;38.82;99290.01;1660429;85;21737;-71
2021/06/20 11:22:01;;;;;;;5.40;1.10;;;;;;;31.47;38.52;99291.29;1659207;84;21440;-71
2021/06/20 11:24:38;;;;;;;10.10;1.40;;;;;;;31.57;35.71;99290.72;1633051;84;21993;-71
2021/06/20 11:27:10;;;;;;;10.23;1.72;;;;;;;31.61;36.30;99296.25;1639064;86;21054;-71
2021/06/20 11:29:43;;;;;;;6.03;1.10;;;;;;;31.66;34.83;99302.73;1636734;85;21097;-72
2021/06/20 11:32:25;;;;;;;10.60;1.62;;;;;;;31.69;36.01;99299.00;1649059;85;21125;-70
2021/06/20 11:34:54;;;;;;;;;;;;;;;31.76;35.84;99300.94;1645209;85;21502;-72
2021/06/20 11:37:25;;;;;;;9.75;1.35;;;;;;;31.75;36.62;99292.26;1640466;85;21213;-72
2021/06/20 11:39:58;;;;;;;8.43;1.52;;;;;;;31.84;36.94;99285.80;1646013;85;21716;-72